Time;durP1;ratioP1;P1;durP2;ratioP2;P2;SDS_P1;SDS_P2;PMS_P1;PMS_P2;Temp;Humidity;BMP_temperature;BMP_pressure;BME280_temperature;BME280_humidity;BME280_pressure;Samples;Min_cycle;Max_cycle;Signal;HPM_P1;HPM_P2
2023/08/11 00:01:35;;;;;;;5.60;2.40;;;;;;;20.76;65.46;100223.66;4988814;28;20458;-53
2023/08/11 00:04:03;;;;;;;5.85;2.42;;;;;;;20.73;65.50;100222.97;4980287;28;20162;-56
2023/08/11 00:06:31;;;;;;;7.82;1.95;;;;;;;20.70;65.40;100223.09;4967262;28;20137;-53
2023/08/11 00:08:59;;;;;;;5.00;2.85;;;;;;;20.65;65.67;100220.63;4983415;28;20050;-54
2023/08/11 00:11:26;;;;;;;6.55;2.65;;;;;;;20.63;65.33;100217.19;4971819;28;20097;-55
2023/08/11 00:13:53;;;;;;;9.52;2.58;;;;;;;20.60;65.90;100217.34;4981447;28;20376;-54
2023/08/11 00:16:21;;;;;;;8.25;2.55;;;;;;;20.58;66.38;100219.19;4975637;28;20050;-56
2023/08/11 00:18:49;;;;;;;6.25;2.20;;;;;;;20.53;66.11;100212.34;4980357;28;20050;-54
2023/08/11 00:21:16;;;;;;;6.00;2.78;;;;;;;20.48;66.09;100209.06;4982614;28;20054;-53
2023/08/11 00:23:43;;;;;;;6.68;2.80;;;;;;;20.45;66.48;100219.69;4982047;28;20074;-54
2023/08/11 00:26:10;;;;;;;7.18;2.58;;;;;;;20.44;66.53;100217.13;4978107;28;20081;-56
2023/08/11 00:28:38;;;;;;;7.68;3.45;;;;;;;20.41;66.12;100212.84;4984930;28;20051;-53
2023/08/11 00:31:06;;;;;;;8.02;3.65;;;;;;;20.38;66.63;100207.72;4977775;28;20046;-54
2023/08/11 00:33:32;;;;;;;6.70;2.13;;;;;;;20.35;66.50;100197.31;4974031;28;20085;-54
2023/08/11 00:35:59;;;;;;;6.80;2.63;;;;;;;20.33;66.55;100199.16;4981133;28;20563;-54
2023/08/11 00:38:37;;;;;;;7.93;2.90;;;;;;;20.25;66.80;100197.72;4974014;28;20104;-53
2023/08/11 00:41:06;;;;;;;4.20;2.15;;;;;;;20.27;66.95;100200.28;4974654;28;20526;-55
2023/08/11 00:43:33;;;;;;;7.05;2.63;;;;;;;20.22;67.21;100192.56;4982488;28;20058;-53
2023/08/11 00:46:10;;;;;;;8.13;2.45;;;;;;;20.19;67.27;100187.44;4979431;28;20046;-55
2023/08/11 00:48:38;;;;;;;4.00;2.10;;;;;;;20.19;67.27;100187.44;4973780;28;20042;-53
2023/08/11 00:51:05;;;;;;;7.30;2.47;;;;;;;20.19;67.32;100182.16;4976391;28;20061;-55
2023/08/11 00:53:33;;;;;;;7.82;2.70;;;;;;;20.23;67.09;100183.75;4975843;28;20061;-55
2023/08/11 00:56:02;;;;;;;8.88;2.40;;;;;;;20.25;66.98;100184.56;4982104;28;20057;-56
2023/08/11 00:58:31;;;;;;;10.10;3.00;;;;;;;20.26;67.12;100183.63;4992185;28;20058;-56
2023/08/11 01:00:58;;;;;;;7.93;2.55;;;;;;;20.28;67.19;100176.53;4978430;28;20055;-56
2023/08/11 01:03:26;;;;;;;7.88;2.65;;;;;;;20.29;67.34;100183.50;4980416;28;20078;-56
2023/08/11 01:06:21;;;;;;;4.57;2.00;;;;;;;20.20;67.46;100176.00;4978603;28;20126;-56
2023/08/11 01:08:55;;;;;;;;;;;;;;;20.06;67.88;100186.22;4977916;28;20054;-55
2023/08/11 01:11:33;;;;;;;6.43;2.20;;;;;;;20.16;67.54;100188.41;4978446;28;19928;-54
2023/08/11 01:14:09;;;;;;;5.45;2.70;;;;;;;20.22;67.30;100191.69;4988848;28;20043;-52
2023/08/11 01:16:36;;;;;;;7.00;2.25;;;;;;;20.18;67.23;100193.59;4977547;28;20059;-54
2023/08/11 01:19:06;;;;;;;7.35;2.72;;;;;;;20.15;67.31;100185.84;4978789;28;20571;-55
2023/08/11 01:21:35;;;;;;;9.45;2.90;;;;;;;20.12;67.08;100194.72;4987836;28;20056;-54
2023/08/11 01:24:02;;;;;;;6.88;3.75;;;;;;;20.11;67.16;100194.78;4980875;28;20047;-56
2023/08/11 01:26:29;;;;;;;9.35;3.45;;;;;;;20.11;67.45;100200.03;4981881;28;20061;-55
2023/08/11 01:28:56;;;;;;;7.25;3.30;;;;;;;20.09;67.33;100192.19;4990230;28;20057;-54
2023/08/11 01:31:23;;;;;;;9.65;4.03;;;;;;;20.10;66.96;100185.19;4982443;28;20057;-55
2023/08/11 01:33:50;;;;;;;10.65;3.50;;;;;;;20.08;67.50;100179.13;4979824;28;20526;-53
2023/08/11 01:36:16;;;;;;;8.88;3.50;;;;;;;20.06;67.65;100180.97;4982989;28;20042;-54
2023/08/11 01:38:43;;;;;;;11.23;4.10;;;;;;;20.02;67.35;100175.81;4983405;28;20078;-56
2023/08/11 01:41:10;;;;;;;11.63;4.13;;;;;;;19.99;67.38;100168.06;4981468;28;20058;-55
2023/08/11 01:43:37;;;;;;;11.25;3.75;;;;;;;19.95;67.40;100163.81;4979783;28;20051;-55
2023/08/11 01:46:04;;;;;;;13.50;4.18;;;;;;;19.92;67.49;100166.56;4980963;28;20046;-55
2023/08/11 01:48:31;;;;;;;14.35;5.18;;;;;;;19.92;67.67;100163.94;4985056;28;20423;-52
2023/08/11 01:50:58;;;;;;;10.73;4.10;;;;;;;19.89;67.85;100158.78;4977810;28;20098;-55
2023/08/11 01:53:25;;;;;;;9.48;3.53;;;;;;;19.86;67.41;100157.16;4980056;28;20046;-52
2023/08/11 01:55:52;;;;;;;11.20;4.35;;;;;;;19.83;67.72;100149.41;4982454;28;20391;-55
2023/08/11 01:58:19;;;;;;;12.95;4.25;;;;;;;19.81;67.92;100150.34;4977079;28;20440;-53
2023/08/11 02:00:46;;;;;;;9.90;3.22;;;;;;;19.80;68.13;100143.41;4979910;28;20074;-52
2023/08/11 02:03:13;;;;;;;8.82;3.28;;;;;;;19.80;68.00;100143.41;4974371;28;20047;-55
2023/08/11 02:05:39;;;;;;;7.47;3.25;;;;;;;19.78;68.02;100139.06;4981988;28;20060;-51
2023/08/11 02:08:06;;;;;;;11.43;3.10;;;;;;;19.78;68.07;100136.44;4984895;28;20046;-54
2023/08/11 02:10:33;;;;;;;6.35;2.90;;;;;;;19.78;68.39;100135.56;4959197;28;20082;-54
2023/08/11 02:13:00;;;;;;;10.80;2.92;;;;;;;19.74;68.23;100132.22;4976690;28;20046;-53
2023/08/11 02:15:28;;;;;;;13.05;3.55;;;;;;;19.72;68.36;100120.91;4975496;28;20054;-51
2023/08/11 02:17:54;;;;;;;10.77;2.17;;;;;;;19.70;68.61;100120.13;4980988;28;20058;-52
2023/08/11 02:20:21;;;;;;;8.30;2.60;;;;;;;19.68;68.67;100119.31;4980945;28;20046;-56
2023/08/11 02:22:49;;;;;;;6.03;2.20;;;;;;;19.68;69.03;100124.56;4979059;28;20136;-53
2023/08/11 02:25:16;;;;;;;10.23;2.97;;;;;;;19.68;68.69;100124.56;4977758;28;20084;-54
2023/08/11 02:27:43;;;;;;;6.88;2.72;;;;;;;19.66;68.72;100121.19;4982224;28;20057;-52
2023/08/11 02:30:11;;;;;;;8.02;2.45;;;;;;;19.64;68.92;100118.59;4980645;28;20050;-53
2023/08/11 02:32:39;;;;;;;8.13;2.35;;;;;;;19.65;68.30;100124.69;4995294;28;20110;-52
2023/08/11 02:35:07;;;;;;;6.63;2.28;;;;;;;19.62;68.91;100130.09;4966113;28;20076;-51
2023/08/11 02:37:34;;;;;;;7.53;2.50;;;;;;;19.61;68.96;100137.09;4980680;28;20839;-50
2023/08/11 02:40:00;;;;;;;6.70;2.03;;;;;;;19.61;69.22;100129.22;4980443;28;20049;-54
2023/08/11 02:42:27;;;;;;;3.97;2.58;;;;;;;19.65;69.03;100129.94;4995405;28;20096;-53
2023/08/11 02:44:54;;;;;;;7.90;1.70;;;;;;;19.67;69.33;100130.75;4983575;28;20046;-51
2023/08/11 02:47:20;;;;;;;5.78;1.75;;;;;;;19.69;69.18;100126.28;4977097;28;20053;-55
2023/08/11 02:49:47;;;;;;;3.88;1.60;;;;;;;19.71;69.58;100129.72;4977033;28;20074;-51
2023/08/11 02:52:14;;;;;;;6.90;2.10;;;;;;;19.72;69.60;100134.03;4976898;28;20496;-52
2023/08/11 02:54:41;;;;;;;5.75;1.83;;;;;;;19.72;69.65;100128.78;4995029;28;20057;-51
2023/08/11 02:57:08;;;;;;;5.38;1.75;;;;;;;19.75;69.54;100126.06;4996041;28;20096;-55
2023/08/11 02:59:35;;;;;;;7.68;1.63;;;;;;;19.75;69.96;100131.31;5000235;28;20061;-53
2023/08/11 03:02:02;;;;;;;7.68;1.58;;;;;;;19.81;69.93;100121.44;4995314;28;20053;-54
2023/08/11 03:04:28;;;;;;;5.30;1.67;;;;;;;19.80;69.59;100127.63;4997449;28;20042;-54
2023/08/11 03:06:55;;;;;;;11.05;2.38;;;;;;;19.84;70.07;100118.72;4994646;28;20091;-51
2023/08/11 03:09:22;;;;;;;5.30;1.30;;;;;;;19.84;69.85;100118.72;4997359;28;20050;-55
2023/08/11 03:11:48;;;;;;;6.03;1.60;;;;;;;19.86;69.75;100116.88;4979277;28;20588;-50
2023/08/11 03:14:15;;;;;;;5.30;1.65;;;;;;;19.88;70.04;100120.28;4996414;28;20057;-52
2023/08/11 03:16:44;;;;;;;7.78;2.25;;;;;;;19.90;70.10;100121.09;4999615;28;20054;-53
2023/08/11 03:19:11;;;;;;;6.97;2.45;;;;;;;19.92;69.63;100124.50;4995377;28;20045;-50
2023/08/11 03:21:38;;;;;;;4.28;1.40;;;;;;;19.91;69.93;100114.91;5010742;28;20042;-54
2023/08/11 03:24:05;;;;;;;5.43;1.75;;;;;;;19.93;69.97;100118.34;4995648;28;20046;-54
2023/08/11 03:26:32;;;;;;;7.35;1.80;;;;;;;19.94;70.10;100119.19;4994512;28;20053;-53
2023/08/11 03:28:59;;;;;;;4.82;1.73;;;;;;;19.95;70.03;100111.25;5003331;28;20104;-52
2023/08/11 03:31:26;;;;;;;5.85;1.58;;;;;;;19.95;69.90;100115.63;4998395;28;20046;-53
2023/08/11 03:33:52;;;;;;;8.43;1.67;;;;;;;19.93;70.43;100110.47;5000612;28;20058;-55
2023/08/11 03:36:19;;;;;;;7.88;1.80;;;;;;;19.94;69.70;100119.19;5001242;28;20452;-53
2023/08/11 03:38:46;;;;;;;4.25;1.52;;;;;;;19.95;70.18;100116.50;5000249;28;20076;-55
2023/08/11 03:41:13;;;;;;;8.90;2.25;;;;;;;19.95;70.33;100106.00;4993047;28;20077;-54
2023/08/11 03:43:39;;;;;;;5.80;1.60;;;;;;;19.96;70.07;100105.06;4990566;28;20042;-52
2023/08/11 03:46:06;;;;;;;6.35;1.50;;;;;;;19.96;70.17;100106.84;4996472;28;20046;-54
2023/08/11 03:48:33;;;;;;;5.90;2.50;;;;;;;19.98;69.96;100115.50;4998443;28;20049;-53
2023/08/11 03:51:00;;;;;;;5.25;1.92;;;;;;;19.98;70.23;100116.38;4996837;28;20084;-51
2023/08/11 03:53:27;;;;;;;5.53;1.77;;;;;;;19.98;70.08;100116.38;4995340;28;20050;-53
2023/08/11 03:55:53;;;;;;;7.53;1.63;;;;;;;19.98;70.38;100105.88;4980097;28;20185;-52
2023/08/11 03:58:21;;;;;;;6.30;1.75;;;;;;;19.99;70.45;100109.38;5001352;28;20057;-54
2023/08/11 04:00:48;;;;;;;5.22;2.03;;;;;;;20.01;70.10;100111.03;5002768;28;20062;-53
2023/08/11 04:03:15;;;;;;;6.22;1.33;;;;;;;20.02;70.03;100118.00;4999597;28;20054;-53
2023/08/11 04:05:42;;;;;;;3.50;1.30;;;;;;;20.02;70.39;100112.75;5013540;28;20050;-56
2023/08/11 04:08:08;;;;;;;5.82;1.55;;;;;;;20.03;70.09;100119.69;5000504;28;20105;-51
2023/08/11 04:10:35;;;;;;;6.88;1.48;;;;;;;20.03;70.02;100118.88;5000944;28;20060;-50
2023/08/11 04:13:03;;;;;;;6.05;1.45;;;;;;;20.02;70.39;100107.47;4992807;28;20054;-51
2023/08/11 04:15:31;;;;;;;5.10;1.40;;;;;;;20.03;70.12;100113.59;4998259;28;20053;-54
2023/08/11 04:17:58;;;;;;;5.15;1.73;;;;;;;20.02;70.40;100114.50;5007513;28;20553;-52
2023/08/11 04:20:25;;;;;;;4.93;1.15;;;;;;;20.00;70.33;100109.31;4996686;28;20058;-52
2023/08/11 04:22:51;;;;;;;6.75;1.83;;;;;;;20.00;70.63;100122.44;4995142;28;20447;-54
2023/08/11 04:25:18;;;;;;;6.45;1.33;;;;;;;19.99;70.46;100120.75;5002008;28;20046;-51
2023/08/11 04:27:45;;;;;;;4.68;1.02;;;;;;;19.99;70.64;100118.13;4996597;28;20054;-54
2023/08/11 04:30:12;;;;;;;5.70;1.33;;;;;;;20.01;70.75;100116.28;4998536;28;20061;-50
2023/08/11 04:32:39;;;;;;;8.88;1.52;;;;;;;19.99;70.88;100112.84;4994751;28;20396;-56
2023/08/11 04:35:07;;;;;;;10.63;1.55;;;;;;;20.02;70.67;100125.00;4999952;28;20046;-55
2023/08/11 04:37:34;;;;;;;3.70;1.08;;;;;;;20.02;70.56;100127.63;4993701;28;20057;-55
2023/08/11 04:40:06;;;;;;;4.18;1.23;;;;;;;20.00;70.77;100130.34;5001848;28;20062;-54
2023/08/11 04:42:33;;;;;;;3.60;1.20;;;;;;;19.99;70.59;100128.63;4995922;28;20049;-54
2023/08/11 04:44:59;;;;;;;4.65;1.33;;;;;;;19.96;70.72;100128.72;4996292;28;20100;-51
2023/08/11 04:47:26;;;;;;;2.95;1.02;;;;;;;19.96;70.61;100131.34;4991906;28;20043;-53
2023/08/11 04:49:53;;;;;;;5.35;0.88;;;;;;;19.96;70.84;100139.22;4994338;28;20124;-54
2023/08/11 04:52:19;;;;;;;3.03;1.25;;;;;;;19.96;71.09;100141.84;4995265;28;20046;-54
2023/08/11 04:54:46;;;;;;;3.75;2.03;;;;;;;19.96;71.21;100139.22;4998093;28;20058;-52
2023/08/11 04:57:13;;;;;;;3.60;1.10;;;;;;;19.96;70.98;100144.50;5000145;28;20412;-54
2023/08/11 04:59:40;;;;;;;2.95;1.02;;;;;;;19.98;71.02;100153.19;5006687;28;20062;-53
2023/08/11 05:02:07;;;;;;;3.30;1.17;;;;;;;19.98;71.04;100153.19;4997538;28;20483;-55
2023/08/11 05:04:34;;;;;;;4.18;0.75;;;;;;;19.98;71.12;100149.69;4996447;28;20061;-54
2023/08/11 05:07:01;;;;;;;2.03;0.75;;;;;;;19.98;71.37;100153.19;4999536;28;20053;-56
2023/08/11 05:09:27;;;;;;;5.28;1.13;;;;;;;20.00;71.37;100156.63;4998439;28;20046;-53
2023/08/11 05:11:54;;;;;;;4.35;0.85;;;;;;;19.99;71.24;100154.91;4999071;28;20052;-53
2023/08/11 05:14:22;;;;;;;2.42;0.75;;;;;;;19.97;71.51;100142.72;4999097;28;20046;-53
2023/08/11 05:16:49;;;;;;;3.75;1.27;;;;;;;19.98;72.09;100152.31;5003935;28;20084;-54
2023/08/11 05:19:16;;;;;;;3.75;1.25;;;;;;;19.99;72.03;100152.28;4998320;28;20083;-54
2023/08/11 05:21:43;;;;;;;5.03;0.70;;;;;;;20.00;71.46;100159.25;4999714;28;20058;-54
2023/08/11 05:24:10;;;;;;;3.15;1.02;;;;;;;20.01;71.78;100165.38;4994756;28;20049;-55
2023/08/11 05:26:37;;;;;;;4.38;1.08;;;;;;;20.02;71.63;100165.31;5000772;28;20081;-54
2023/08/11 05:29:04;;;;;;;4.03;1.25;;;;;;;20.04;71.88;100157.38;5000971;28;20472;-54
2023/08/11 05:31:31;;;;;;;2.33;0.60;;;;;;;20.06;71.95;100171.28;4997557;28;20570;-55
2023/08/11 05:33:58;;;;;;;1.75;0.77;;;;;;;20.03;72.22;100174.91;5014208;28;20056;-53
2023/08/11 05:36:25;;;;;;;2.03;0.50;;;;;;;20.04;71.96;100163.47;5001503;28;20049;-53
2023/08/11 05:38:52;;;;;;;1.75;1.27;;;;;;;20.07;71.80;100177.41;4998364;28;20607;-54
2023/08/11 05:41:19;;;;;;;3.80;0.95;;;;;;;20.08;71.98;100173.84;4997116;28;20047;-53
2023/08/11 05:43:45;;;;;;;3.08;0.82;;;;;;;20.12;71.75;100167.56;4998118;28;20104;-54
2023/08/11 05:46:12;;;;;;;2.35;1.10;;;;;;;20.15;71.90;100175.31;5002583;28;20053;-55
2023/08/11 05:48:39;;;;;;;3.00;0.93;;;;;;;20.17;71.95;100178.75;4993040;28;20072;-54
2023/08/11 05:51:05;;;;;;;1.10;0.90;;;;;;;20.20;72.00;100175.16;4995356;28;20046;-55
2023/08/11 05:53:32;;;;;;;2.88;0.77;;;;;;;20.23;71.71;100183.75;4999636;28;20104;-52
2023/08/11 05:55:59;;;;;;;1.65;0.63;;;;;;;20.32;71.85;100176.41;5004501;28;20046;-54
2023/08/11 05:58:25;;;;;;;1.00;0.65;;;;;;;20.39;71.57;100172.59;5007773;28;20100;-55
2023/08/11 06:00:52;;;;;;;1.17;0.85;;;;;;;20.44;71.67;100178.53;5003600;28;20041;-55
2023/08/11 06:03:18;;;;;;;1.63;0.75;;;;;;;20.50;71.66;100180.06;4994042;28;20038;-51
2023/08/11 06:05:46;;;;;;;1.02;0.47;;;;;;;20.54;71.56;100182.47;5001483;28;20514;-54
2023/08/11 06:08:12;;;;;;;1.30;0.65;;;;;;;20.61;70.88;100190.09;4997561;28;20057;-54
2023/08/11 06:10:40;;;;;;;1.30;0.40;;;;;;;20.66;71.20;100196.88;4999092;28;20038;-53
2023/08/11 06:13:07;;;;;;;1.00;0.22;;;;;;;20.68;70.97;100204.72;5002820;28;20065;-52
2023/08/11 06:15:33;;;;;;;2.67;0.70;;;;;;;20.70;70.87;100202.03;4997649;28;20084;-54
2023/08/11 06:18:00;;;;;;;2.20;1.27;;;;;;;20.70;70.46;100197.59;4996427;28;20417;-54
2023/08/11 06:20:27;;;;;;;2.00;0.50;;;;;;;20.69;70.25;100195.91;4997659;28;20082;-53
2023/08/11 06:23:07;;;;;;;1.65;0.85;;;;;;;20.69;70.04;100206.44;5002099;28;20056;-53
2023/08/11 06:25:34;;;;;;;2.10;0.63;;;;;;;20.68;69.87;100204.72;4998567;28;20070;-53
2023/08/11 06:28:01;;;;;;;2.30;0.95;;;;;;;20.66;69.78;100206.53;4997687;28;20475;-53
2023/08/11 06:30:28;;;;;;;1.75;0.85;;;;;;;20.64;69.67;100208.41;5002585;28;20391;-56
2023/08/11 06:32:56;;;;;;;1.60;0.52;;;;;;;20.66;70.19;100211.81;5000094;28;20668;-54
2023/08/11 06:35:24;;;;;;;1.85;0.70;;;;;;;20.69;69.45;100211.69;4992987;28;20503;-55
2023/08/11 06:37:50;;;;;;;2.85;1.13;;;;;;;20.71;70.01;100215.13;4995425;28;20042;-53
2023/08/11 06:40:17;;;;;;;1.80;0.50;;;;;;;20.74;69.63;100209.69;5000218;28;20046;-54
2023/08/11 06:42:44;;;;;;;1.58;1.02;;;;;;;20.76;69.07;100218.41;4981850;28;20053;-54
2023/08/11 06:45:11;;;;;;;4.22;0.65;;;;;;;20.76;69.29;100207.88;5000372;28;20061;-54
2023/08/11 06:47:37;;;;;;;1.73;0.60;;;;;;;20.77;69.50;100214.00;4991771;28;20054;-52
2023/08/11 06:50:05;;;;;;;3.72;1.25;;;;;;;20.76;68.95;100215.78;4992364;28;20280;-55
2023/08/11 06:52:31;;;;;;;4.22;0.75;;;;;;;20.84;69.09;100219.84;4991783;28;20050;-54
2023/08/11 06:54:58;;;;;;;2.00;0.70;;;;;;;20.92;69.14;100223.91;4985449;28;20049;-54
2023/08/11 06:57:25;;;;;;;1.98;0.75;;;;;;;21.03;68.56;100220.78;4996411;28;20054;-54
2023/08/11 06:59:52;;;;;;;5.47;0.98;;;;;;;21.11;68.29;100222.25;5002162;28;20049;-52
2023/08/11 07:02:19;;;;;;;1.35;0.70;;;;;;;21.29;68.25;100220.56;5005669;28;20049;-55
2023/08/11 07:04:46;;;;;;;5.00;0.80;;;;;;;21.45;67.80;100220.72;5004315;28;20069;-56
2023/08/11 07:07:13;;;;;;;4.38;0.80;;;;;;;21.61;67.44;100214.75;4996594;28;20060;-52
2023/08/11 07:09:39;;;;;;;4.38;0.90;;;;;;;21.79;67.26;100211.25;5001178;28;20402;-54
2023/08/11 07:12:06;;;;;;;2.95;0.73;;;;;;;22.02;66.85;100214.59;4999785;28;20096;-51
2023/08/11 07:14:33;;;;;;;3.15;1.05;;;;;;;22.29;66.54;100205.41;4999350;28;20058;-54
2023/08/11 07:16:59;;;;;;;3.08;0.95;;;;;;;22.53;66.19;100208.59;4997417;28;20042;-51
2023/08/11 07:19:26;;;;;;;2.17;0.80;;;;;;;22.76;65.50;100213.69;4993503;28;20289;-52
2023/08/11 07:21:53;;;;;;;6.32;0.95;;;;;;;22.90;65.17;100215.59;4998849;28;20047;-52
2023/08/11 07:24:20;;;;;;;4.25;0.80;;;;;;;23.00;65.00;100216.81;4988766;28;20053;-53
2023/08/11 07:26:46;;;;;;;2.53;0.70;;;;;;;23.16;64.77;100221.28;4995513;28;20064;-55
2023/08/11 07:29:13;;;;;;;4.03;1.20;;;;;;;23.38;64.72;100218.41;4997401;28;20061;-55
2023/08/11 07:31:44;;;;;;;2.45;0.82;;;;;;;23.57;63.88;100220.88;4986052;28;20128;-52
2023/08/11 07:34:10;;;;;;;3.17;1.42;;;;;;;23.72;63.22;100215.69;4991927;28;20499;-54
2023/08/11 07:36:38;;;;;;;4.05;0.90;;;;;;;23.85;62.90;100229.91;4990040;28;20046;-53
2023/08/11 07:39:07;;;;;;;4.97;1.10;;;;;;;23.84;61.80;100225.59;4979999;28;20050;-53
2023/08/11 07:41:50;;;;;;;3.75;1.25;;;;;;;24.05;62.69;100227.13;4993547;28;20131;-55
2023/08/11 07:44:17;;;;;;;4.45;1.30;;;;;;;24.35;61.49;100231.63;4987458;28;20104;-53
2023/08/11 07:46:44;;;;;;;2.22;1.55;;;;;;;24.69;60.90;100231.44;4980498;28;20054;-55
2023/08/11 07:49:10;;;;;;;3.17;1.48;;;;;;;24.83;60.30;100239.41;4995029;28;20513;-53
2023/08/11 07:51:39;;;;;;;2.80;1.17;;;;;;;24.84;60.13;100238.47;4995543;28;20053;-54
2023/08/11 07:54:06;;;;;;;4.22;1.30;;;;;;;24.84;59.79;100243.75;5001240;28;20630;-55
2023/08/11 07:56:33;;;;;;;4.00;1.73;;;;;;;24.83;59.27;100242.06;5013518;28;20058;-53
2023/08/11 07:59:00;;;;;;;2.55;1.17;;;;;;;24.78;59.29;100252.06;4996264;28;20064;-52
2023/08/11 08:01:26;;;;;;;2.13;0.90;;;;;;;24.74;58.75;100242.59;4998016;28;20075;-54
2023/08/11 08:03:54;;;;;;;2.22;0.90;;;;;;;24.78;59.18;100249.41;4990131;28;20068;-54
2023/08/11 08:06:21;;;;;;;3.42;0.80;;;;;;;24.89;59.32;100259.41;4994554;28;20565;-53
2023/08/11 08:08:48;;;;;;;3.63;1.15;;;;;;;25.11;58.69;100260.75;4992678;28;20072;-54
2023/08/11 08:11:14;;;;;;;3.90;0.80;;;;;;;25.20;57.92;100248.75;4994977;28;20173;-54
2023/08/11 08:13:41;;;;;;;2.53;0.90;;;;;;;25.19;57.55;100252.34;4989717;28;20046;-52
2023/08/11 08:16:08;;;;;;;3.45;1.00;;;;;;;25.21;57.22;100255.75;4991275;28;20407;-53
2023/08/11 08:18:35;;;;;;;2.30;0.90;;;;;;;25.27;56.82;100250.91;4992914;28;20490;-56
2023/08/11 08:21:01;;;;;;;3.35;1.15;;;;;;;25.21;56.70;100256.59;4989587;28;20061;-55
2023/08/11 08:23:28;;;;;;;4.22;0.95;;;;;;;25.20;56.35;100251.41;4994121;28;20061;-54
2023/08/11 08:25:55;;;;;;;2.88;0.90;;;;;;;25.16;56.25;100248.94;4994771;28;20057;-52
2023/08/11 08:28:22;;;;;;;1.80;0.70;;;;;;;25.19;56.41;100253.19;4994104;28;20041;-55
2023/08/11 08:30:50;;;;;;;5.28;1.77;;;;;;;25.22;55.96;100258.31;4998343;28;20054;-53
2023/08/11 08:33:16;;;;;;;1.90;0.90;;;;;;;25.30;56.26;100249.91;4994500;28;20038;-55
2023/08/11 08:35:43;;;;;;;1.77;0.60;;;;;;;25.27;55.47;100256.22;4991555;28;20086;-54
2023/08/11 08:38:10;;;;;;;2.13;0.98;;;;;;;25.22;55.63;100253.00;4990509;28;20046;-55
2023/08/11 08:40:37;;;;;;;3.97;1.00;;;;;;;25.19;55.68;100262.94;4989847;28;20054;-53
2023/08/11 08:43:05;;;;;;;2.17;1.17;;;;;;;25.19;55.69;100260.31;4988258;28;20729;-54
2023/08/11 08:45:35;;;;;;;1.88;0.68;;;;;;;25.22;55.22;100262.75;4988364;28;20050;-54
2023/08/11 08:48:08;;;;;;;2.53;0.77;;;;;;;25.22;55.40;100258.31;4986175;28;20069;-51
2023/08/11 08:50:36;;;;;;;3.97;0.65;;;;;;;25.36;55.27;100264.56;4992340;28;20054;-55
2023/08/11 08:53:03;;;;;;;2.00;1.15;;;;;;;25.56;54.61;100258.00;4988450;28;20390;-54
2023/08/11 08:55:30;;;;;;;2.28;0.60;;;;;;;25.76;54.48;100267.38;4986655;28;20100;-56
2023/08/11 08:57:56;;;;;;;3.65;1.05;;;;;;;26.10;54.34;100253.75;4988589;28;20142;-55
2023/08/11 09:00:23;;;;;;;2.50;0.80;;;;;;;26.47;54.24;100265.59;4988892;28;20058;-57
2023/08/11 09:02:52;;;;;;;2.03;0.80;;;;;;;26.78;53.84;100268.84;4993875;28;20533;-54
2023/08/11 09:05:21;;;;;;;2.13;0.80;;;;;;;27.03;53.31;100267.19;4987211;28;20137;-54
2023/08/11 09:07:47;;;;;;;3.03;1.13;;;;;;;27.22;52.73;100263.25;4989581;28;20097;-52
2023/08/11 09:10:16;;;;;;;3.88;0.70;;;;;;;27.25;51.51;100269.19;4992876;28;20042;-55
2023/08/11 09:12:44;;;;;;;2.00;0.68;;;;;;;27.41;52.63;100268.13;4993387;28;20061;-52
2023/08/11 09:15:12;;;;;;;4.35;1.27;;;;;;;27.71;51.58;100251.81;4991234;28;20050;-54
2023/08/11 09:17:39;;;;;;;3.13;0.63;;;;;;;28.01;50.29;100259.47;4994658;28;20050;-50
2023/08/11 09:20:10;;;;;;;3.28;0.82;;;;;;;28.09;50.00;100257.09;4999405;28;20075;-53
2023/08/11 09:22:38;;;;;;;1.80;0.70;;;;;;;28.17;49.88;100257.38;5005804;28;20203;-58
2023/08/11 09:25:08;;;;;;;4.00;1.00;;;;;;;28.23;48.99;100254.28;4993256;28;20058;-58
2023/08/11 09:27:35;;;;;;;5.60;1.00;;;;;;;28.41;49.80;100253.91;4991044;28;20043;-57
2023/08/11 09:30:03;;;;;;;6.13;1.67;;;;;;;28.73;49.49;100258.59;4981526;28;20066;-59
2023/08/11 09:32:32;;;;;;;3.30;1.10;;;;;;;29.06;48.28;100265.94;4987454;28;20414;-58
2023/08/11 09:35:09;;;;;;;3.92;0.73;;;;;;;29.24;47.62;100267.19;4989925;28;20477;-59
2023/08/11 09:37:36;;;;;;;3.13;0.82;;;;;;;29.32;47.25;100273.72;4990012;28;20477;-58
2023/08/11 09:40:04;;;;;;;3.30;1.00;;;;;;;29.25;46.69;100260.03;4974604;28;20046;-59
2023/08/11 09:42:32;;;;;;;2.72;0.90;;;;;;;29.29;45.69;100266.81;4989622;28;20076;-59
2023/08/11 09:44:59;;;;;;;4.25;1.00;;;;;;;29.46;47.38;100260.16;4989063;28;20050;-59
2023/08/11 09:47:28;;;;;;;3.55;1.23;;;;;;;29.78;46.62;100252.38;4989522;28;20129;-59
2023/08/11 09:49:55;;;;;;;7.45;1.42;;;;;;;29.93;45.33;100266.28;4993320;28;20077;-59
2023/08/11 09:52:23;;;;;;;3.60;1.40;;;;;;;29.91;45.57;100269.06;4992513;28;20491;-59
2023/08/11 09:54:53;;;;;;;5.45;1.55;;;;;;;30.08;45.55;100266.84;4991203;28;20137;-59
2023/08/11 09:57:22;;;;;;;4.65;0.95;;;;;;;30.04;43.90;100265.38;5001811;28;20096;-59
2023/08/11 09:59:53;;;;;;;5.40;1.15;;;;;;;29.95;43.39;100265.19;4997322;28;20133;-59
2023/08/11 10:02:24;;;;;;;3.67;1.70;;;;;;;29.79;43.37;100264.75;5002127;28;20042;-59
2023/08/11 10:04:57;;;;;;;3.30;1.38;;;;;;;29.69;43.28;100269.97;5000956;28;20104;-60
2023/08/11 10:07:35;;;;;;;4.72;1.85;;;;;;;29.60;43.61;100267.06;5012685;28;20042;-60
2023/08/11 10:10:10;;;;;;;5.03;1.85;;;;;;;29.58;43.57;100262.84;5008671;28;20054;-59
2023/08/11 10:12:40;;;;;;;3.28;1.25;;;;;;;29.50;42.67;100266.94;4993986;28;20047;-59
2023/08/11 10:15:10;;;;;;;6.72;1.92;;;;;;;29.40;44.05;100259.75;4999225;28;20132;-58
2023/08/11 10:17:36;;;;;;;4.18;1.70;;;;;;;29.36;43.45;100260.03;4999899;28;20346;-58
2023/08/11 10:20:06;;;;;;;5.63;1.40;;;;;;;29.36;42.89;100270.69;4999447;28;20053;-58
2023/08/11 10:22:33;;;;;;;4.13;1.73;;;;;;;29.35;42.84;100265.50;4994832;28;20064;-58
2023/08/11 10:25:04;;;;;;;4.80;1.33;;;;;;;29.36;43.27;100259.16;4995450;28;20046;-59
2023/08/11 10:27:31;;;;;;;4.70;1.65;;;;;;;29.38;43.25;100251.91;4994543;28;20042;-60
2023/08/11 10:29:59;;;;;;;4.63;1.92;;;;;;;29.44;44.32;100256.75;4989495;28;20061;-60
2023/08/11 10:32:34;;;;;;;5.78;2.38;;;;;;;29.60;44.06;100251.06;5002397;28;20053;-60
2023/08/11 10:35:03;;;;;;;4.55;2.00;;;;;;;29.78;43.90;100244.38;4993249;28;20053;-58
2023/08/11 10:37:31;;;;;;;5.18;1.48;;;;;;;29.96;42.94;100256.19;4993127;28;20058;-59
2023/08/11 10:42:41;;;;;;;4.45;1.17;;;;;;;30.00;41.94;100246.97;5052972;27;20773;-60
2023/08/11 10:45:10;;;;;;;4.47;1.08;;;;;;;30.01;42.17;100248.66;5017978;28;20042;-57
2023/08/11 10:47:38;;;;;;;4.93;0.98;;;;;;;30.14;42.09;100248.53;5020471;28;20049;-60
2023/08/11 10:50:09;;;;;;;4.93;2.80;;;;;;;30.36;41.49;100256.59;5030502;28;21399;-59
2023/08/11 10:52:35;;;;;;;5.63;1.08;;;;;;;30.49;41.52;100251.88;5016178;28;20136;-60
2023/08/11 10:55:03;;;;;;;6.10;1.45;;;;;;;30.65;42.01;100250.59;5017464;28;20049;-60
2023/08/11 10:57:31;;;;;;;3.65;1.45;;;;;;;30.84;41.87;100254.41;5016227;28;20053;-59
2023/08/11 10:59:58;;;;;;;5.20;0.85;;;;;;;31.07;41.30;100251.56;5022937;28;20049;-59
2023/08/11 11:02:25;;;;;;;5.40;1.20;;;;;;;31.18;40.42;100251.47;5036469;28;20037;-59
2023/08/11 11:04:53;;;;;;;6.85;1.30;;;;;;;31.11;40.09;100250.31;5018270;28;20057;-59
2023/08/11 11:07:23;;;;;;;5.78;1.00;;;;;;;30.97;39.24;100249.66;5018363;28;20048;-59
2023/08/11 11:09:50;;;;;;;5.88;1.10;;;;;;;30.79;39.62;100252.09;5011484;28;20546;-59
2023/08/11 11:12:17;;;;;;;4.72;0.90;;;;;;;30.49;39.08;100249.22;5018302;28;20049;-58
2023/08/11 11:14:44;;;;;;;4.70;0.77;;;;;;;30.21;39.82;100246.19;5014513;28;20057;-58
2023/08/11 11:17:11;;;;;;;4.30;1.13;;;;;;;29.82;39.13;100251.97;5035356;28;20049;-59
2023/08/11 11:19:38;;;;;;;6.65;1.63;;;;;;;29.59;39.89;100251.19;5034639;28;20055;-58
2023/08/11 11:22:06;;;;;;;4.57;1.67;;;;;;;29.41;40.37;100256.97;5014335;28;20525;-58
2023/08/11 11:24:33;;;;;;;5.85;1.23;;;;;;;29.47;40.68;100260.97;5014681;28;20188;-58
2023/08/11 11:27:00;;;;;;;5.78;1.10;;;;;;;29.58;40.72;100253.00;5023613;28;20057;-58
2023/08/11 11:29:28;;;;;;;7.88;1.52;;;;;;;29.70;41.49;100240.50;5032423;28;20055;-58